sensor_id;sensor_type;location;lat;lon;timestamp;temperature;humidity
3418;DHT22;68007;51.312;12.372;2023-09-19T00:00:27;20.40;92.30
3418;DHT22;68007;51.312;12.372;2023-09-19T00:02:55;20.50;92.10
3418;DHT22;68007;51.312;12.372;2023-09-19T00:05:25;20.50;92.00
3418;DHT22;68007;51.312;12.372;2023-09-19T00:07:55;20.60;92.00
3418;DHT22;68007;51.312;12.372;2023-09-19T00:10:26;20.60;92.00
3418;DHT22;68007;51.312;12.372;2023-09-19T00:12:53;20.50;92.10
3418;DHT22;68007;51.312;12.372;2023-09-19T00:15:24;20.50;92.00
3418;DHT22;68007;51.312;12.372;2023-09-19T00:17:52;20.60;92.00
3418;DHT22;68007;51.312;12.372;2023-09-19T00:20:19;20.60;92.10
3418;DHT22;68007;51.312;12.372;2023-09-19T00:22:49;20.50;92.20
3418;DHT22;68007;51.312;12.372;2023-09-19T00:25:18;20.60;92.00
3418;DHT22;68007;51.312;12.372;2023-09-19T00:27:46;20.60;92.40
3418;DHT22;68007;51.312;12.372;2023-09-19T00:30:14;20.50;92.50
3418;DHT22;68007;51.312;12.372;2023-09-19T00:32:47;20.60;92.10
3418;DHT22;68007;51.312;12.372;2023-09-19T00:35:15;20.50;92.00
3418;DHT22;68007;51.312;12.372;2023-09-19T00:37:43;20.60;91.90
3418;DHT22;68007;51.312;12.372;2023-09-19T00:40:11;20.70;91.90
3418;DHT22;68007;51.312;12.372;2023-09-19T00:42:39;20.70;91.80
3418;DHT22;68007;51.312;12.372;2023-09-19T00:45:07;20.60;91.90
3418;DHT22;68007;51.312;12.372;2023-09-19T00:47:38;20.60;91.80
3418;DHT22;68007;51.312;12.372;2023-09-19T00:50:08;20.60;92.00
3418;DHT22;68007;51.312;12.372;2023-09-19T00:52:38;20.70;91.90
3418;DHT22;68007;51.312;12.372;2023-09-19T00:55:07;20.60;91.90
3418;DHT22;68007;51.312;12.372;2023-09-19T00:57:35;20.60;92.10
3418;DHT22;68007;51.312;12.372;2023-09-19T01:00:05;20.50;92.30
3418;DHT22;68007;51.312;12.372;2023-09-19T01:02:34;20.50;92.50
3418;DHT22;68007;51.312;12.372;2023-09-19T01:05:02;20.40;92.80
3418;DHT22;68007;51.312;12.372;2023-09-19T01:07:32;20.40;92.90
3418;DHT22;68007;51.312;12.372;2023-09-19T01:10:02;20.30;92.80
3418;DHT22;68007;51.312;12.372;2023-09-19T01:12:42;20.40;92.80
3418;DHT22;68007;51.312;12.372;2023-09-19T01:15:19;20.40;92.80
3418;DHT22;68007;51.312;12.372;2023-09-19T01:17:52;20.40;92.70
3418;DHT22;68007;51.312;12.372;2023-09-19T01:20:34;20.40;92.70
3418;DHT22;68007;51.312;12.372;2023-09-19T01:23:11;20.40;92.90
3418;DHT22;68007;51.312;12.372;2023-09-19T01:28:51;20.20;93.10
3418;DHT22;68007;51.312;12.372;2023-09-19T01:31:23;20.20;93.20
3418;DHT22;68007;51.312;12.372;2023-09-19T01:33:56;20.10;93.20
3418;DHT22;68007;51.312;12.372;2023-09-19T01:36:28;20.20;93.10
3418;DHT22;68007;51.312;12.372;2023-09-19T01:38:57;20.10;93.10
3418;DHT22;68007;51.312;12.372;2023-09-19T01:41:52;20.10;93.00
3418;DHT22;68007;51.312;12.372;2023-09-19T01:44:26;20.30;93.00
3418;DHT22;68007;51.312;12.372;2023-09-19T01:46:59;20.20;93.00
3418;DHT22;68007;51.312;12.372;2023-09-19T01:49:39;20.20;93.00
3418;DHT22;68007;51.312;12.372;2023-09-19T01:52:13;20.20;93.00
3418;DHT22;68007;51.312;12.372;2023-09-19T01:54:48;20.20;93.00
3418;DHT22;68007;51.312;12.372;2023-09-19T01:57:29;20.20;92.80
3418;DHT22;68007;51.312;12.372;2023-09-19T02:00:02;20.30;92.70
3418;DHT22;68007;51.312;12.372;2023-09-19T02:02:35;20.30;92.70
3418;DHT22;68007;51.312;12.372;2023-09-19T02:05:04;20.30;92.70
3418;DHT22;68007;51.312;12.372;2023-09-19T02:07:32;20.30;92.70
3418;DHT22;68007;51.312;12.372;2023-09-19T02:10:04;20.30;92.60
3418;DHT22;68007;51.312;12.372;2023-09-19T02:12:33;20.30;92.50
3418;DHT22;68007;51.312;12.372;2023-09-19T02:15:01;20.30;92.40
3418;DHT22;68007;51.312;12.372;2023-09-19T02:17:29;20.30;92.20
3418;DHT22;68007;51.312;12.372;2023-09-19T02:19:58;20.40;92.20
3418;DHT22;68007;51.312;12.372;2023-09-19T02:22:27;20.40;91.90
3418;DHT22;68007;51.312;12.372;2023-09-19T02:24:55;20.40;91.90
3418;DHT22;68007;51.312;12.372;2023-09-19T02:27:26;20.40;91.80
3418;DHT22;68007;51.312;12.372;2023-09-19T02:29:54;20.30;91.90
3418;DHT22;68007;51.312;12.372;2023-09-19T02:32:22;20.40;91.80
3418;DHT22;68007;51.312;12.372;2023-09-19T02:34:50;20.40;91.90
3418;DHT22;68007;51.312;12.372;2023-09-19T02:37:19;20.40;91.60
3418;DHT22;68007;51.312;12.372;2023-09-19T02:39:47;20.40;91.60
3418;DHT22;68007;51.312;12.372;2023-09-19T02:42:15;20.40;91.60
3418;DHT22;68007;51.312;12.372;2023-09-19T02:44:42;20.30;91.50
3418;DHT22;68007;51.312;12.372;2023-09-19T02:47:13;20.40;91.30
3418;DHT22;68007;51.312;12.372;2023-09-19T02:49:41;20.30;91.50
3418;DHT22;68007;51.312;12.372;2023-09-19T02:52:08;20.30;91.60
3418;DHT22;68007;51.312;12.372;2023-09-19T02:54:38;20.30;91.40
3418;DHT22;68007;51.312;12.372;2023-09-19T02:57:05;20.30;91.40
3418;DHT22;68007;51.312;12.372;2023-09-19T02:59:34;20.20;91.50
3418;DHT22;68007;51.312;12.372;2023-09-19T03:02:03;20.20;91.50
3418;DHT22;68007;51.312;12.372;2023-09-19T03:04:31;20.10;91.60
3418;DHT22;68007;51.312;12.372;2023-09-19T03:07:00;20.10;91.60
3418;DHT22;68007;51.312;12.372;2023-09-19T03:09:28;20.10;91.70
3418;DHT22;68007;51.312;12.372;2023-09-19T03:11:57;20.00;91.70
3418;DHT22;68007;51.312;12.372;2023-09-19T03:14:26;20.00;91.70
3418;DHT22;68007;51.312;12.372;2023-09-19T03:16:56;20.00;91.80
3418;DHT22;68007;51.312;12.372;2023-09-19T03:19:23;19.90;91.70
3418;DHT22;68007;51.312;12.372;2023-09-19T03:21:52;19.90;91.80
3418;DHT22;68007;51.312;12.372;2023-09-19T03:24:20;19.90;91.80
3418;DHT22;68007;51.312;12.372;2023-09-19T03:26:47;20.00;91.60
3418;DHT22;68007;51.312;12.372;2023-09-19T03:29:16;20.00;91.80
3418;DHT22;68007;51.312;12.372;2023-09-19T03:31:44;20.00;91.60
3418;DHT22;68007;51.312;12.372;2023-09-19T03:34:12;19.90;91.60
3418;DHT22;68007;51.312;12.372;2023-09-19T03:36:39;19.90;91.70
3418;DHT22;68007;51.312;12.372;2023-09-19T03:39:07;19.80;91.90
3418;DHT22;68007;51.312;12.372;2023-09-19T03:41:36;19.80;91.90
3418;DHT22;68007;51.312;12.372;2023-09-19T03:44:04;19.60;92.10
3418;DHT22;68007;51.312;12.372;2023-09-19T03:46:33;19.60;92.20
3418;DHT22;68007;51.312;12.372;2023-09-19T03:49:01;19.60;92.30
3418;DHT22;68007;51.312;12.372;2023-09-19T03:51:29;19.50;92.30
3418;DHT22;68007;51.312;12.372;2023-09-19T03:53:56;19.50;92.30
3418;DHT22;68007;51.312;12.372;2023-09-19T03:56:24;19.60;92.20
3418;DHT22;68007;51.312;12.372;2023-09-19T03:58:51;19.50;92.30
3418;DHT22;68007;51.312;12.372;2023-09-19T04:01:19;19.50;92.30
3418;DHT22;68007;51.312;12.372;2023-09-19T04:03:48;19.50;92.40
3418;DHT22;68007;51.312;12.372;2023-09-19T04:06:17;19.50;92.40
3418;DHT22;68007;51.312;12.372;2023-09-19T04:08:45;19.60;92.30
3418;DHT22;68007;51.312;12.372;2023-09-19T04:11:13;19.60;92.20
3418;DHT22;68007;51.312;12.372;2023-09-19T04:13:41;19.60;92.10
3418;DHT22;68007;51.312;12.372;2023-09-19T04:16:08;19.50;92.10
3418;DHT22;68007;51.312;12.372;2023-09-19T04:18:36;19.50;92.20
3418;DHT22;68007;51.312;12.372;2023-09-19T04:21:07;19.50;92.20
3418;DHT22;68007;51.312;12.372;2023-09-19T04:23:34;19.50;92.10
3418;DHT22;68007;51.312;12.372;2023-09-19T04:26:02;19.50;92.10
3418;DHT22;68007;51.312;12.372;2023-09-19T04:28:31;19.60;91.90
3418;DHT22;68007;51.312;12.372;2023-09-19T04:31:00;19.60;91.80
3418;DHT22;68007;51.312;12.372;2023-09-19T04:33:27;19.60;91.80
3418;DHT22;68007;51.312;12.372;2023-09-19T04:35:55;19.60;91.80
3418;DHT22;68007;51.312;12.372;2023-09-19T04:38:25;19.60;91.80
3418;DHT22;68007;51.312;12.372;2023-09-19T04:40:57;19.60;91.70
3418;DHT22;68007;51.312;12.372;2023-09-19T04:43:25;19.50;91.80
3418;DHT22;68007;51.312;12.372;2023-09-19T04:45:52;19.40;91.80
3418;DHT22;68007;51.312;12.372;2023-09-19T04:48:22;19.40;91.80
3418;DHT22;68007;51.312;12.372;2023-09-19T04:50:51;19.40;91.90
3418;DHT22;68007;51.312;12.372;2023-09-19T04:53:19;19.40;91.80
3418;DHT22;68007;51.312;12.372;2023-09-19T04:55:51;19.40;91.90
3418;DHT22;68007;51.312;12.372;2023-09-19T04:58:21;19.40;91.70
3418;DHT22;68007;51.312;12.372;2023-09-19T05:00:49;19.30;91.70
3418;DHT22;68007;51.312;12.372;2023-09-19T05:03:18;19.40;92.00
3418;DHT22;68007;51.312;12.372;2023-09-19T05:05:46;19.40;91.60
3418;DHT22;68007;51.312;12.372;2023-09-19T05:08:14;19.30;91.50
3418;DHT22;68007;51.312;12.372;2023-09-19T05:10:41;19.30;91.70
3418;DHT22;68007;51.312;12.372;2023-09-19T05:13:10;19.30;91.60
3418;DHT22;68007;51.312;12.372;2023-09-19T05:15:39;19.40;91.60
3418;DHT22;68007;51.312;12.372;2023-09-19T05:18:07;19.30;91.60
3418;DHT22;68007;51.312;12.372;2023-09-19T05:20:34;19.20;91.50
3418;DHT22;68007;51.312;12.372;2023-09-19T05:23:05;19.10;91.70
3418;DHT22;68007;51.312;12.372;2023-09-19T05:25:34;18.90;91.80
3418;DHT22;68007;51.312;12.372;2023-09-19T05:28:05;18.90;91.70
3418;DHT22;68007;51.312;12.372;2023-09-19T05:30:35;18.80;91.80
3418;DHT22;68007;51.312;12.372;2023-09-19T05:33:04;18.70;91.80
3418;DHT22;68007;51.312;12.372;2023-09-19T05:35:32;18.60;92.00
3418;DHT22;68007;51.312;12.372;2023-09-19T05:38:00;18.60;91.90
3418;DHT22;68007;51.312;12.372;2023-09-19T05:40:27;18.50;92.10
3418;DHT22;68007;51.312;12.372;2023-09-19T05:42:55;18.50;92.10
3418;DHT22;68007;51.312;12.372;2023-09-19T05:45:22;18.40;92.10
3418;DHT22;68007;51.312;12.372;2023-09-19T05:47:52;18.40;92.30
3418;DHT22;68007;51.312;12.372;2023-09-19T05:50:22;18.40;92.20
3418;DHT22;68007;51.312;12.372;2023-09-19T05:52:54;18.40;92.20
3418;DHT22;68007;51.312;12.372;2023-09-19T05:55:22;18.30;92.10
3418;DHT22;68007;51.312;12.372;2023-09-19T05:57:52;18.30;92.00
3418;DHT22;68007;51.312;12.372;2023-09-19T06:00:20;18.40;92.00
3418;DHT22;68007;51.312;12.372;2023-09-19T06:02:52;18.40;92.00
3418;DHT22;68007;51.312;12.372;2023-09-19T06:05:20;18.40;91.90
3418;DHT22;68007;51.312;12.372;2023-09-19T06:07:48;18.40;91.90
3418;DHT22;68007;51.312;12.372;2023-09-19T06:10:16;18.50;91.70
3418;DHT22;68007;51.312;12.372;2023-09-19T06:12:43;18.50;91.60
3418;DHT22;68007;51.312;12.372;2023-09-19T06:15:12;18.60;91.70
3418;DHT22;68007;51.312;12.372;2023-09-19T06:17:42;18.60;91.10
3418;DHT22;68007;51.312;12.372;2023-09-19T06:20:11;18.70;91.00
3418;DHT22;68007;51.312;12.372;2023-09-19T06:22:41;18.70;90.90
3418;DHT22;68007;51.312;12.372;2023-09-19T06:25:09;18.70;91.00
3418;DHT22;68007;51.312;12.372;2023-09-19T06:27:38;18.80;90.90
3418;DHT22;68007;51.312;12.372;2023-09-19T06:30:08;18.80;90.80
3418;DHT22;68007;51.312;12.372;2023-09-19T06:32:37;18.90;90.80
3418;DHT22;68007;51.312;12.372;2023-09-19T06:35:05;19.00;90.60
3418;DHT22;68007;51.312;12.372;2023-09-19T06:37:36;19.00;90.50
3418;DHT22;68007;51.312;12.372;2023-09-19T06:40:07;19.00;90.40
3418;DHT22;68007;51.312;12.372;2023-09-19T06:42:36;19.00;90.30
3418;DHT22;68007;51.312;12.372;2023-09-19T06:45:05;18.90;90.60
3418;DHT22;68007;51.312;12.372;2023-09-19T06:47:33;18.90;90.90
3418;DHT22;68007;51.312;12.372;2023-09-19T06:50:00;18.90;90.90
3418;DHT22;68007;51.312;12.372;2023-09-19T06:52:30;18.90;90.80
3418;DHT22;68007;51.312;12.372;2023-09-19T06:55:00;19.00;90.70
3418;DHT22;68007;51.312;12.372;2023-09-19T06:57:29;18.90;90.70
3418;DHT22;68007;51.312;12.372;2023-09-19T06:59:57;18.90;90.70
3418;DHT22;68007;51.312;12.372;2023-09-19T07:02:27;18.90;90.50
3418;DHT22;68007;51.312;12.372;2023-09-19T07:04:55;18.80;90.70
3418;DHT22;68007;51.312;12.372;2023-09-19T07:07:23;18.80;90.00
3418;DHT22;68007;51.312;12.372;2023-09-19T07:09:50;18.70;90.10
3418;DHT22;68007;51.312;12.372;2023-09-19T07:12:21;18.70;89.80
3418;DHT22;68007;51.312;12.372;2023-09-19T07:14:49;18.60;88.20
3418;DHT22;68007;51.312;12.372;2023-09-19T07:17:16;18.70;88.20
3418;DHT22;68007;51.312;12.372;2023-09-19T07:19:45;18.60;88.70
3418;DHT22;68007;51.312;12.372;2023-09-19T07:22:14;18.60;88.40
3418;DHT22;68007;51.312;12.372;2023-09-19T07:24:42;18.70;87.40
3418;DHT22;68007;51.312;12.372;2023-09-19T07:27:09;18.70;86.40
3418;DHT22;68007;51.312;12.372;2023-09-19T07:29:38;18.80;86.40
3418;DHT22;68007;51.312;12.372;2023-09-19T07:32:06;18.80;85.90
3418;DHT22;68007;51.312;12.372;2023-09-19T07:34:34;18.70;85.70
3418;DHT22;68007;51.312;12.372;2023-09-19T07:37:01;18.70;85.30
3418;DHT22;68007;51.312;12.372;2023-09-19T07:39:29;18.70;85.70
3418;DHT22;68007;51.312;12.372;2023-09-19T07:41:57;18.70;85.70
3418;DHT22;68007;51.312;12.372;2023-09-19T07:44:24;18.70;85.70
3418;DHT22;68007;51.312;12.372;2023-09-19T07:46:54;18.70;85.50
3418;DHT22;68007;51.312;12.372;2023-09-19T07:49:23;18.70;85.50
3418;DHT22;68007;51.312;12.372;2023-09-19T07:51:50;18.60;85.80
3418;DHT22;68007;51.312;12.372;2023-09-19T07:54:20;18.70;86.00
3418;DHT22;68007;51.312;12.372;2023-09-19T07:56:48;18.70;85.60
3418;DHT22;68007;51.312;12.372;2023-09-19T07:59:16;18.60;84.70
3418;DHT22;68007;51.312;12.372;2023-09-19T08:01:43;18.60;84.50
3418;DHT22;68007;51.312;12.372;2023-09-19T08:04:12;18.70;85.00
3418;DHT22;68007;51.312;12.372;2023-09-19T08:06:40;18.70;85.10
3418;DHT22;68007;51.312;12.372;2023-09-19T08:09:07;18.70;84.50
3418;DHT22;68007;51.312;12.372;2023-09-19T08:11:37;18.80;84.40
3418;DHT22;68007;51.312;12.372;2023-09-19T08:14:05;18.80;83.90
3418;DHT22;68007;51.312;12.372;2023-09-19T08:16:33;18.80;84.20
3418;DHT22;68007;51.312;12.372;2023-09-19T08:19:01;18.80;84.40
3418;DHT22;68007;51.312;12.372;2023-09-19T08:21:30;18.80;84.10
3418;DHT22;68007;51.312;12.372;2023-09-19T08:23:58;18.80;83.70
3418;DHT22;68007;51.312;12.372;2023-09-19T08:26:26;18.70;84.10
3418;DHT22;68007;51.312;12.372;2023-09-19T08:28:55;18.80;85.00
3418;DHT22;68007;51.312;12.372;2023-09-19T08:31:23;18.80;84.20
3418;DHT22;68007;51.312;12.372;2023-09-19T08:33:51;18.80;84.20
3418;DHT22;68007;51.312;12.372;2023-09-19T08:36:19;18.80;84.50
3418;DHT22;68007;51.312;12.372;2023-09-19T08:38:48;18.90;84.60
3418;DHT22;68007;51.312;12.372;2023-09-19T08:41:17;18.90;84.40
3418;DHT22;68007;51.312;12.372;2023-09-19T08:43:45;18.90;84.50
3418;DHT22;68007;51.312;12.372;2023-09-19T08:46:15;18.90;85.60
3418;DHT22;68007;51.312;12.372;2023-09-19T08:48:46;18.90;84.70
3418;DHT22;68007;51.312;12.372;2023-09-19T08:51:22;18.80;84.80
3418;DHT22;68007;51.312;12.372;2023-09-19T08:54:03;18.90;85.10
3418;DHT22;68007;51.312;12.372;2023-09-19T08:56:33;18.90;84.60
3418;DHT22;68007;51.312;12.372;2023-09-19T08:59:03;18.90;85.20
3418;DHT22;68007;51.312;12.372;2023-09-19T09:01:31;18.90;85.20
3418;DHT22;68007;51.312;12.372;2023-09-19T09:03:59;18.90;84.90
3418;DHT22;68007;51.312;12.372;2023-09-19T09:06:29;18.90;85.00
3418;DHT22;68007;51.312;12.372;2023-09-19T09:09:00;18.90;85.10
3418;DHT22;68007;51.312;12.372;2023-09-19T09:11:28;18.90;85.20
3418;DHT22;68007;51.312;12.372;2023-09-19T09:13:55;19.00;84.90
3418;DHT22;68007;51.312;12.372;2023-09-19T09:16:23;19.00;84.50
3418;DHT22;68007;51.312;12.372;2023-09-19T09:18:52;19.00;83.60
3418;DHT22;68007;51.312;12.372;2023-09-19T09:21:20;19.00;84.10
3418;DHT22;68007;51.312;12.372;2023-09-19T09:23:48;19.00;83.40
3418;DHT22;68007;51.312;12.372;2023-09-19T09:26:41;19.00;80.90
3418;DHT22;68007;51.312;12.372;2023-09-19T09:29:10;19.00;81.20
3418;DHT22;68007;51.312;12.372;2023-09-19T09:31:37;19.00;80.70
3418;DHT22;68007;51.312;12.372;2023-09-19T09:34:05;19.00;79.60
3418;DHT22;68007;51.312;12.372;2023-09-19T09:36:37;19.10;78.20
3418;DHT22;68007;51.312;12.372;2023-09-19T09:39:05;19.10;78.40
3418;DHT22;68007;51.312;12.372;2023-09-19T09:41:46;19.10;73.00
3418;DHT22;68007;51.312;12.372;2023-09-19T09:44:15;19.10;71.00
3418;DHT22;68007;51.312;12.372;2023-09-19T09:46:44;19.10;68.30
3418;DHT22;68007;51.312;12.372;2023-09-19T09:49:26;19.10;67.60
3418;DHT22;68007;51.312;12.372;2023-09-19T09:52:01;19.10;67.70
3418;DHT22;68007;51.312;12.372;2023-09-19T09:54:32;19.20;67.30
3418;DHT22;68007;51.312;12.372;2023-09-19T09:57:06;19.20;67.70
3418;DHT22;68007;51.312;12.372;2023-09-19T09:59:50;19.30;69.30
3418;DHT22;68007;51.312;12.372;2023-09-19T10:02:21;19.40;70.20
3418;DHT22;68007;51.312;12.372;2023-09-19T10:04:52;19.40;70.30
3418;DHT22;68007;51.312;12.372;2023-09-19T10:07:26;19.50;70.60
3418;DHT22;68007;51.312;12.372;2023-09-19T10:09:54;19.60;70.10
3418;DHT22;68007;51.312;12.372;2023-09-19T10:12:32;19.50;70.40
3418;DHT22;68007;51.312;12.372;2023-09-19T10:15:02;19.60;70.80
3418;DHT22;68007;51.312;12.372;2023-09-19T10:17:34;19.60;70.90
3418;DHT22;68007;51.312;12.372;2023-09-19T10:20:04;19.70;71.50
3418;DHT22;68007;51.312;12.372;2023-09-19T10:22:46;19.70;71.30
3418;DHT22;68007;51.312;12.372;2023-09-19T10:25:25;19.70;71.00
3418;DHT22;68007;51.312;12.372;2023-09-19T10:27:57;19.80;70.30
3418;DHT22;68007;51.312;12.372;2023-09-19T10:30:27;19.80;70.60
3418;DHT22;68007;51.312;12.372;2023-09-19T10:33:00;19.80;70.50
3418;DHT22;68007;51.312;12.372;2023-09-19T10:35:29;19.80;70.50
3418;DHT22;68007;51.312;12.372;2023-09-19T10:37:59;19.90;69.70
3418;DHT22;68007;51.312;12.372;2023-09-19T10:40:27;19.90;69.50
3418;DHT22;68007;51.312;12.372;2023-09-19T10:43:03;19.90;69.90
3418;DHT22;68007;51.312;12.372;2023-09-19T10:45:33;19.90;69.40
3418;DHT22;68007;51.312;12.372;2023-09-19T10:48:02;19.90;69.50
3418;DHT22;68007;51.312;12.372;2023-09-19T10:50:36;19.90;69.00
3418;DHT22;68007;51.312;12.372;2023-09-19T10:53:11;20.00;69.50
3418;DHT22;68007;51.312;12.372;2023-09-19T10:55:39;20.00;69.00
3418;DHT22;68007;51.312;12.372;2023-09-19T10:58:08;20.10;69.50
3418;DHT22;68007;51.312;12.372;2023-09-19T11:00:51;20.10;68.10
3418;DHT22;68007;51.312;12.372;2023-09-19T11:03:20;20.10;67.60
3418;DHT22;68007;51.312;12.372;2023-09-19T11:06:06;20.00;67.30
3418;DHT22;68007;51.312;12.372;2023-09-19T11:09:06;20.00;67.40
3418;DHT22;68007;51.312;12.372;2023-09-19T11:11:49;20.00;67.20
3418;DHT22;68007;51.312;12.372;2023-09-19T11:14:40;20.10;66.90
3418;DHT22;68007;51.312;12.372;2023-09-19T11:17:31;20.10;66.00
3418;DHT22;68007;51.312;12.372;2023-09-19T11:20:22;20.10;65.40
3418;DHT22;68007;51.312;12.372;2023-09-19T11:23:18;20.10;65.00
3418;DHT22;68007;51.312;12.372;2023-09-19T11:25:45;20.10;64.40
3418;DHT22;68007;51.312;12.372;2023-09-19T11:28:32;20.10;64.20
3418;DHT22;68007;51.312;12.372;2023-09-19T11:34:44;20.30;64.00
3418;DHT22;68007;51.312;12.372;2023-09-19T11:40:26;20.40;64.60
3418;DHT22;68007;51.312;12.372;2023-09-19T11:42:54;20.40;63.60
3418;DHT22;68007;51.312;12.372;2023-09-19T11:48:29;20.60;63.00
3418;DHT22;68007;51.312;12.372;2023-09-19T11:50:59;20.60;62.90
3418;DHT22;68007;51.312;12.372;2023-09-19T11:53:33;20.70;61.90
3418;DHT22;68007;51.312;12.372;2023-09-19T11:56:06;20.80;62.40
3418;DHT22;68007;51.312;12.372;2023-09-19T11:58:37;20.90;62.80
3418;DHT22;68007;51.312;12.372;2023-09-19T12:01:05;21.10;62.20
3418;DHT22;68007;51.312;12.372;2023-09-19T12:03:43;21.10;61.70
3418;DHT22;68007;51.312;12.372;2023-09-19T12:06:14;21.20;61.50
3418;DHT22;68007;51.312;12.372;2023-09-19T12:08:43;21.30;61.80
3418;DHT22;68007;51.312;12.372;2023-09-19T12:11:13;21.40;62.00
3418;DHT22;68007;51.312;12.372;2023-09-19T12:13:43;21.50;63.10
3418;DHT22;68007;51.312;12.372;2023-09-19T12:16:16;21.70;63.20
3418;DHT22;68007;51.312;12.372;2023-09-19T12:18:45;21.90;62.20
3418;DHT22;68007;51.312;12.372;2023-09-19T12:21:27;22.00;61.00
3418;DHT22;68007;51.312;12.372;2023-09-19T12:24:04;22.20;60.40
3418;DHT22;68007;51.312;12.372;2023-09-19T12:26:38;22.20;59.70
3418;DHT22;68007;51.312;12.372;2023-09-19T12:29:14;22.20;59.90
3418;DHT22;68007;51.312;12.372;2023-09-19T12:31:53;22.30;61.20
3418;DHT22;68007;51.312;12.372;2023-09-19T12:34:26;22.40;61.90
3418;DHT22;68007;51.312;12.372;2023-09-19T12:37:04;22.40;60.60
3418;DHT22;68007;51.312;12.372;2023-09-19T12:39:38;22.50;60.80
3418;DHT22;68007;51.312;12.372;2023-09-19T12:42:08;22.60;60.10
3418;DHT22;68007;51.312;12.372;2023-09-19T12:44:37;22.70;59.40
3418;DHT22;68007;51.312;12.372;2023-09-19T12:47:10;22.80;59.30
3418;DHT22;68007;51.312;12.372;2023-09-19T12:50:06;22.80;58.50
3418;DHT22;68007;51.312;12.372;2023-09-19T12:52:35;22.90;58.00
3418;DHT22;68007;51.312;12.372;2023-09-19T12:55:04;22.80;58.30
3418;DHT22;68007;51.312;12.372;2023-09-19T12:57:33;22.80;58.20
3418;DHT22;68007;51.312;12.372;2023-09-19T13:00:01;22.80;58.50
3418;DHT22;68007;51.312;12.372;2023-09-19T13:02:29;22.80;58.10
3418;DHT22;68007;51.312;12.372;2023-09-19T13:04:56;22.80;57.80
3418;DHT22;68007;51.312;12.372;2023-09-19T13:07:44;22.80;57.80
3418;DHT22;68007;51.312;12.372;2023-09-19T13:10:13;22.80;57.40
3418;DHT22;68007;51.312;12.372;2023-09-19T13:12:43;22.80;58.20
3418;DHT22;68007;51.312;12.372;2023-09-19T13:15:15;22.90;57.90
3418;DHT22;68007;51.312;12.372;2023-09-19T13:17:46;23.00;57.40
3418;DHT22;68007;51.312;12.372;2023-09-19T13:20:22;23.00;58.00
3418;DHT22;68007;51.312;12.372;2023-09-19T13:22:55;23.20;58.10
3418;DHT22;68007;51.312;12.372;2023-09-19T13:25:26;23.30;58.00
3418;DHT22;68007;51.312;12.372;2023-09-19T13:27:57;23.30;57.20
3418;DHT22;68007;51.312;12.372;2023-09-19T13:30:27;23.40;57.30
3418;DHT22;68007;51.312;12.372;2023-09-19T13:33:04;23.40;56.70
3418;DHT22;68007;51.312;12.372;2023-09-19T13:35:33;23.40;56.50
3418;DHT22;68007;51.312;12.372;2023-09-19T13:38:02;23.30;57.30
3418;DHT22;68007;51.312;12.372;2023-09-19T13:40:29;23.40;56.60
3418;DHT22;68007;51.312;12.372;2023-09-19T13:43:01;23.50;57.40
3418;DHT22;68007;51.312;12.372;2023-09-19T13:45:28;23.50;56.40
3418;DHT22;68007;51.312;12.372;2023-09-19T13:47:57;23.50;56.40
3418;DHT22;68007;51.312;12.372;2023-09-19T13:50:25;23.50;56.30
3418;DHT22;68007;51.312;12.372;2023-09-19T13:52:52;23.50;56.30
3418;DHT22;68007;51.312;12.372;2023-09-19T13:55:22;23.50;56.50
3418;DHT22;68007;51.312;12.372;2023-09-19T13:57:51;23.50;56.30
3418;DHT22;68007;51.312;12.372;2023-09-19T14:00:20;23.50;56.90
3418;DHT22;68007;51.312;12.372;2023-09-19T14:02:49;23.60;57.10
3418;DHT22;68007;51.312;12.372;2023-09-19T14:05:17;23.60;56.10
3418;DHT22;68007;51.312;12.372;2023-09-19T14:07:45;23.50;56.50
3418;DHT22;68007;51.312;12.372;2023-09-19T14:10:13;23.60;55.90
3418;DHT22;68007;51.312;12.372;2023-09-19T14:12:44;23.70;55.60
3418;DHT22;68007;51.312;12.372;2023-09-19T14:15:12;23.60;55.60
3418;DHT22;68007;51.312;12.372;2023-09-19T14:17:40;23.60;55.00
3418;DHT22;68007;51.312;12.372;2023-09-19T14:20:09;23.60;54.80
3418;DHT22;68007;51.312;12.372;2023-09-19T14:22:36;23.50;54.30
3418;DHT22;68007;51.312;12.372;2023-09-19T14:25:05;23.50;55.00
3418;DHT22;68007;51.312;12.372;2023-09-19T14:27:32;23.50;54.90
3418;DHT22;68007;51.312;12.372;2023-09-19T14:30:01;23.60;55.00
3418;DHT22;68007;51.312;12.372;2023-09-19T14:32:30;23.60;54.40
3418;DHT22;68007;51.312;12.372;2023-09-19T14:34:58;23.60;53.90
3418;DHT22;68007;51.312;12.372;2023-09-19T14:37:25;23.70;53.90
3418;DHT22;68007;51.312;12.372;2023-09-19T14:39:54;23.70;54.10
3418;DHT22;68007;51.312;12.372;2023-09-19T14:42:22;23.70;54.20
3418;DHT22;68007;51.312;12.372;2023-09-19T14:44:49;23.80;53.10
3418;DHT22;68007;51.312;12.372;2023-09-19T14:47:18;23.80;52.60
3418;DHT22;68007;51.312;12.372;2023-09-19T14:49:46;23.80;52.80
3418;DHT22;68007;51.312;12.372;2023-09-19T14:52:13;23.70;53.00
3418;DHT22;68007;51.312;12.372;2023-09-19T14:54:41;23.70;53.30
3418;DHT22;68007;51.312;12.372;2023-09-19T14:57:09;23.70;53.00
3418;DHT22;68007;51.312;12.372;2023-09-19T14:59:36;23.70;54.10
3418;DHT22;68007;51.312;12.372;2023-09-19T15:02:04;23.70;54.80
3418;DHT22;68007;51.312;12.372;2023-09-19T15:04:33;23.60;53.10
3418;DHT22;68007;51.312;12.372;2023-09-19T15:07:01;23.60;53.40
3418;DHT22;68007;51.312;12.372;2023-09-19T15:09:28;23.60;53.30
3418;DHT22;68007;51.312;12.372;2023-09-19T15:11:58;23.60;54.10
3418;DHT22;68007;51.312;12.372;2023-09-19T15:14:26;23.70;53.70
3418;DHT22;68007;51.312;12.372;2023-09-19T15:16:53;23.60;53.10
3418;DHT22;68007;51.312;12.372;2023-09-19T15:19:21;23.60;52.30
3418;DHT22;68007;51.312;12.372;2023-09-19T15:21:50;23.50;52.50
3418;DHT22;68007;51.312;12.372;2023-09-19T15:24:17;23.60;53.40
3418;DHT22;68007;51.312;12.372;2023-09-19T15:26:46;23.60;52.50
3418;DHT22;68007;51.312;12.372;2023-09-19T15:29:14;23.50;52.70
3418;DHT22;68007;51.312;12.372;2023-09-19T15:31:42;23.60;52.70
3418;DHT22;68007;51.312;12.372;2023-09-19T15:34:09;23.60;52.20
3418;DHT22;68007;51.312;12.372;2023-09-19T15:36:40;23.50;51.30
3418;DHT22;68007;51.312;12.372;2023-09-19T15:39:09;23.50;51.80
3418;DHT22;68007;51.312;12.372;2023-09-19T15:41:39;23.50;52.30
3418;DHT22;68007;51.312;12.372;2023-09-19T15:44:11;23.50;52.10
3418;DHT22;68007;51.312;12.372;2023-09-19T15:46:39;23.50;52.10
3418;DHT22;68007;51.312;12.372;2023-09-19T15:49:07;23.50;52.20
3418;DHT22;68007;51.312;12.372;2023-09-19T15:51:35;23.50;52.70
3418;DHT22;68007;51.312;12.372;2023-09-19T15:54:09;23.40;52.60
3418;DHT22;68007;51.312;12.372;2023-09-19T15:56:37;23.40;52.40
3418;DHT22;68007;51.312;12.372;2023-09-19T15:59:07;23.40;51.80
3418;DHT22;68007;51.312;12.372;2023-09-19T16:01:37;23.40;52.10